Main page
METAR-TAF:

METAR-TAF

Airports :

Murcia, Spain

Base Aérea de Alcantarilla

latitude: 37-57N, longitude: 001-14W, elevation: 75 m

Current weather observation

The report was made 15 minutes ago, at 07:00 UTC
Wind 4 kt from the Southwest
Temperature 11°C
Humidity 87%
Pressure 1022 hPa
Visibility 10 km or more
Few clouds at a height of 3600 ft
Broken clouds at a height of 4500 ft

METAR: LERI 180700Z 22004KT 9999 FEW036 BKN045 11/09 Q1022 NOSIG

Time: 08:15 (07:15 UTC)

Forecast

The report was made 2 hours and 15 minutes ago, at 05:00 UTC
Forecast valid from 18 at 06 UTC to 18 at 15 UTC
Wind 4 kt from the East
Visibility 10 km or more
Scattered clouds at a height of 3000 ft

TAF: LERI 180500Z 1806/1815 08004KT 9999 SCT030

Weather observations and forecasts of more than 4000 airports (METAR and TAF reports).

The available stations are represented by yellow and red dots on the map.

Hover mouse over dot to see the name of the station.

Then click to see weather observations and forecasts.

To change the map : click on the green buttons with a black cross to zoom in, on the green button with a dash to zoom out, or on the green arrows for adjacent maps.


METAR-TAF: